sensor_id;sensor_type;location;lat;lon;timestamp;temperature;humidity
25983;DHT22;13773;48.868;10.730;2023-08-06T00:00:21;13.20;99.90
25983;DHT22;13773;48.868;10.730;2023-08-06T00:02:47;13.30;99.90
25983;DHT22;13773;48.868;10.730;2023-08-06T00:05:13;13.30;99.90
25983;DHT22;13773;48.868;10.730;2023-08-06T00:07:38;13.20;99.90
25983;DHT22;13773;48.868;10.730;2023-08-06T00:10:05;13.30;99.90
25983;DHT22;13773;48.868;10.730;2023-08-06T00:12:30;13.30;99.90
25983;DHT22;13773;48.868;10.730;2023-08-06T00:14:56;13.20;99.90
25983;DHT22;13773;48.868;10.730;2023-08-06T00:17:22;13.10;99.90
25983;DHT22;13773;48.868;10.730;2023-08-06T00:19:47;13.10;99.90
25983;DHT22;13773;48.868;10.730;2023-08-06T00:22:13;13.00;99.90
25983;DHT22;13773;48.868;10.730;2023-08-06T00:24:39;13.10;99.90
25983;DHT22;13773;48.868;10.730;2023-08-06T00:27:05;13.00;99.90
25983;DHT22;13773;48.868;10.730;2023-08-06T00:29:31;13.00;99.90
25983;DHT22;13773;48.868;10.730;2023-08-06T00:31:56;12.90;99.90
25983;DHT22;13773;48.868;10.730;2023-08-06T00:34:22;12.90;99.90
25983;DHT22;13773;48.868;10.730;2023-08-06T00:36:48;12.90;99.90
25983;DHT22;13773;48.868;10.730;2023-08-06T00:39:13;13.00;99.90
25983;DHT22;13773;48.868;10.730;2023-08-06T00:41:39;13.00;99.90
25983;DHT22;13773;48.868;10.730;2023-08-06T00:44:05;13.10;99.90
25983;DHT22;13773;48.868;10.730;2023-08-06T00:46:32;13.10;99.90
25983;DHT22;13773;48.868;10.730;2023-08-06T00:48:59;13.10;99.90
25983;DHT22;13773;48.868;10.730;2023-08-06T00:51:25;13.10;99.90
25983;DHT22;13773;48.868;10.730;2023-08-06T00:53:52;13.10;99.90
25983;DHT22;13773;48.868;10.730;2023-08-06T00:56:19;13.10;99.90
25983;DHT22;13773;48.868;10.730;2023-08-06T00:58:45;13.10;99.90
25983;DHT22;13773;48.868;10.730;2023-08-06T01:01:11;13.00;99.90
25983;DHT22;13773;48.868;10.730;2023-08-06T01:03:37;13.00;99.90
25983;DHT22;13773;48.868;10.730;2023-08-06T01:06:04;13.10;99.90
25983;DHT22;13773;48.868;10.730;2023-08-06T01:08:53;13.10;99.90
25983;DHT22;13773;48.868;10.730;2023-08-06T01:17:12;13.10;99.90
25983;DHT22;13773;48.868;10.730;2023-08-06T01:19:38;13.10;99.90
25983;DHT22;13773;48.868;10.730;2023-08-06T01:22:04;13.10;99.90
25983;DHT22;13773;48.868;10.730;2023-08-06T01:24:30;13.10;99.90
25983;DHT22;13773;48.868;10.730;2023-08-06T01:27:44;13.00;99.90
25983;DHT22;13773;48.868;10.730;2023-08-06T01:30:23;13.00;99.90
25983;DHT22;13773;48.868;10.730;2023-08-06T01:32:54;12.90;99.90
25983;DHT22;13773;48.868;10.730;2023-08-06T01:35:23;12.90;99.90
25983;DHT22;13773;48.868;10.730;2023-08-06T01:37:51;12.90;99.90
25983;DHT22;13773;48.868;10.730;2023-08-06T01:40:17;13.00;99.90
25983;DHT22;13773;48.868;10.730;2023-08-06T01:42:42;13.00;99.90
25983;DHT22;13773;48.868;10.730;2023-08-06T01:45:09;13.10;99.90
25983;DHT22;13773;48.868;10.730;2023-08-06T01:47:35;13.10;99.90
25983;DHT22;13773;48.868;10.730;2023-08-06T01:50:02;13.00;99.90
25983;DHT22;13773;48.868;10.730;2023-08-06T01:52:28;12.90;99.90
25983;DHT22;13773;48.868;10.730;2023-08-06T01:54:54;12.90;99.90
25983;DHT22;13773;48.868;10.730;2023-08-06T01:57:20;12.90;99.90
25983;DHT22;13773;48.868;10.730;2023-08-06T01:59:45;12.80;99.90
25983;DHT22;13773;48.868;10.730;2023-08-06T02:02:11;12.70;99.90
25983;DHT22;13773;48.868;10.730;2023-08-06T02:04:37;12.70;99.90
25983;DHT22;13773;48.868;10.730;2023-08-06T02:07:03;12.70;99.90
25983;DHT22;13773;48.868;10.730;2023-08-06T02:09:29;12.70;99.90
25983;DHT22;13773;48.868;10.730;2023-08-06T02:11:54;12.70;99.90
25983;DHT22;13773;48.868;10.730;2023-08-06T02:14:20;12.80;99.90
25983;DHT22;13773;48.868;10.730;2023-08-06T02:16:46;12.80;99.90
25983;DHT22;13773;48.868;10.730;2023-08-06T02:19:11;12.70;99.90
25983;DHT22;13773;48.868;10.730;2023-08-06T02:21:37;12.70;99.90
25983;DHT22;13773;48.868;10.730;2023-08-06T02:24:03;12.60;99.90
25983;DHT22;13773;48.868;10.730;2023-08-06T02:26:29;12.70;99.90
25983;DHT22;13773;48.868;10.730;2023-08-06T02:28:55;12.70;99.90
25983;DHT22;13773;48.868;10.730;2023-08-06T02:31:20;12.70;99.90
25983;DHT22;13773;48.868;10.730;2023-08-06T02:33:46;12.70;99.90
25983;DHT22;13773;48.868;10.730;2023-08-06T02:36:12;12.60;99.90
25983;DHT22;13773;48.868;10.730;2023-08-06T02:38:38;12.60;99.90
25983;DHT22;13773;48.868;10.730;2023-08-06T02:41:04;12.60;99.90
25983;DHT22;13773;48.868;10.730;2023-08-06T02:43:30;12.50;99.90
25983;DHT22;13773;48.868;10.730;2023-08-06T02:46:02;12.60;99.90
25983;DHT22;13773;48.868;10.730;2023-08-06T02:48:28;12.70;99.90
25983;DHT22;13773;48.868;10.730;2023-08-06T02:50:57;12.80;99.90
25983;DHT22;13773;48.868;10.730;2023-08-06T02:53:23;12.90;99.90
25983;DHT22;13773;48.868;10.730;2023-08-06T02:55:49;12.90;99.90
25983;DHT22;13773;48.868;10.730;2023-08-06T02:58:15;12.80;99.90
25983;DHT22;13773;48.868;10.730;2023-08-06T03:00:41;12.80;99.90
25983;DHT22;13773;48.868;10.730;2023-08-06T03:03:07;12.80;99.90
25983;DHT22;13773;48.868;10.730;2023-08-06T03:05:33;12.80;99.90
25983;DHT22;13773;48.868;10.730;2023-08-06T03:07:58;12.70;99.90
25983;DHT22;13773;48.868;10.730;2023-08-06T03:10:24;12.80;99.90
25983;DHT22;13773;48.868;10.730;2023-08-06T03:12:50;12.70;99.90
25983;DHT22;13773;48.868;10.730;2023-08-06T03:15:16;12.80;99.90
25983;DHT22;13773;48.868;10.730;2023-08-06T03:17:41;12.80;99.90
25983;DHT22;13773;48.868;10.730;2023-08-06T03:20:07;12.70;99.90
25983;DHT22;13773;48.868;10.730;2023-08-06T03:22:33;12.80;99.90
25983;DHT22;13773;48.868;10.730;2023-08-06T03:24:59;12.80;99.90
25983;DHT22;13773;48.868;10.730;2023-08-06T03:27:25;12.80;99.90
25983;DHT22;13773;48.868;10.730;2023-08-06T03:29:50;12.80;99.90
25983;DHT22;13773;48.868;10.730;2023-08-06T03:32:16;12.80;99.90
25983;DHT22;13773;48.868;10.730;2023-08-06T03:34:42;12.80;99.90
25983;DHT22;13773;48.868;10.730;2023-08-06T03:37:08;12.80;99.90
25983;DHT22;13773;48.868;10.730;2023-08-06T03:39:34;12.80;99.90
25983;DHT22;13773;48.868;10.730;2023-08-06T03:42:00;12.80;99.90
25983;DHT22;13773;48.868;10.730;2023-08-06T03:44:25;12.70;99.90
25983;DHT22;13773;48.868;10.730;2023-08-06T03:46:52;12.70;99.90
25983;DHT22;13773;48.868;10.730;2023-08-06T03:49:18;12.70;99.90
25983;DHT22;13773;48.868;10.730;2023-08-06T03:51:44;12.70;99.90
25983;DHT22;13773;48.868;10.730;2023-08-06T03:54:09;12.70;99.90
25983;DHT22;13773;48.868;10.730;2023-08-06T03:56:35;12.60;99.90
25983;DHT22;13773;48.868;10.730;2023-08-06T03:59:01;12.60;99.90
25983;DHT22;13773;48.868;10.730;2023-08-06T04:01:27;12.50;99.90
25983;DHT22;13773;48.868;10.730;2023-08-06T04:03:53;12.50;99.90
25983;DHT22;13773;48.868;10.730;2023-08-06T04:06:18;12.50;99.90
25983;DHT22;13773;48.868;10.730;2023-08-06T04:08:44;12.40;99.90
25983;DHT22;13773;48.868;10.730;2023-08-06T04:11:10;12.40;99.90
25983;DHT22;13773;48.868;10.730;2023-08-06T04:13:35;12.50;99.90
25983;DHT22;13773;48.868;10.730;2023-08-06T04:16:02;12.50;99.90
25983;DHT22;13773;48.868;10.730;2023-08-06T04:18:28;12.50;99.90
25983;DHT22;13773;48.868;10.730;2023-08-06T04:20:54;12.50;99.90
25983;DHT22;13773;48.868;10.730;2023-08-06T04:23:21;12.50;99.90
25983;DHT22;13773;48.868;10.730;2023-08-06T04:25:46;12.70;99.90
25983;DHT22;13773;48.868;10.730;2023-08-06T04:28:12;12.70;99.90
25983;DHT22;13773;48.868;10.730;2023-08-06T04:30:38;12.80;99.90
25983;DHT22;13773;48.868;10.730;2023-08-06T04:33:04;12.80;99.90
25983;DHT22;13773;48.868;10.730;2023-08-06T04:35:30;12.80;99.90
25983;DHT22;13773;48.868;10.730;2023-08-06T04:37:55;12.90;99.90
25983;DHT22;13773;48.868;10.730;2023-08-06T04:40:21;12.90;99.90
25983;DHT22;13773;48.868;10.730;2023-08-06T04:42:47;12.90;99.90
25983;DHT22;13773;48.868;10.730;2023-08-06T04:45:12;12.90;99.90
25983;DHT22;13773;48.868;10.730;2023-08-06T04:47:38;12.90;99.90
25983;DHT22;13773;48.868;10.730;2023-08-06T04:50:04;12.90;99.90
25983;DHT22;13773;48.868;10.730;2023-08-06T04:52:30;13.00;99.90
25983;DHT22;13773;48.868;10.730;2023-08-06T04:54:58;13.10;99.90
25983;DHT22;13773;48.868;10.730;2023-08-06T04:57:23;13.10;99.90
25983;DHT22;13773;48.868;10.730;2023-08-06T04:59:49;13.10;99.90
25983;DHT22;13773;48.868;10.730;2023-08-06T05:02:15;13.10;99.90
25983;DHT22;13773;48.868;10.730;2023-08-06T05:04:41;13.30;99.90
25983;DHT22;13773;48.868;10.730;2023-08-06T05:07:07;13.20;99.90
25983;DHT22;13773;48.868;10.730;2023-08-06T05:09:33;13.20;99.90
25983;DHT22;13773;48.868;10.730;2023-08-06T05:12:01;13.30;99.90
25983;DHT22;13773;48.868;10.730;2023-08-06T05:14:28;13.20;99.90
25983;DHT22;13773;48.868;10.730;2023-08-06T05:16:53;13.20;99.90
25983;DHT22;13773;48.868;10.730;2023-08-06T05:19:19;13.20;99.90
25983;DHT22;13773;48.868;10.730;2023-08-06T05:21:45;13.20;99.90
25983;DHT22;13773;48.868;10.730;2023-08-06T05:24:10;13.30;99.90
25983;DHT22;13773;48.868;10.730;2023-08-06T05:26:37;13.40;99.90
25983;DHT22;13773;48.868;10.730;2023-08-06T05:29:03;13.40;99.90
25983;DHT22;13773;48.868;10.730;2023-08-06T05:31:29;13.40;99.90
25983;DHT22;13773;48.868;10.730;2023-08-06T05:33:55;13.50;99.90
25983;DHT22;13773;48.868;10.730;2023-08-06T05:36:20;13.40;99.90
25983;DHT22;13773;48.868;10.730;2023-08-06T05:38:47;13.40;99.90
25983;DHT22;13773;48.868;10.730;2023-08-06T05:41:13;13.40;99.90
25983;DHT22;13773;48.868;10.730;2023-08-06T05:43:38;13.40;99.90
25983;DHT22;13773;48.868;10.730;2023-08-06T05:46:04;13.50;99.90
25983;DHT22;13773;48.868;10.730;2023-08-06T05:48:30;13.50;99.90
25983;DHT22;13773;48.868;10.730;2023-08-06T05:50:57;13.40;99.90
25983;DHT22;13773;48.868;10.730;2023-08-06T05:53:24;13.40;99.90
25983;DHT22;13773;48.868;10.730;2023-08-06T05:55:50;13.50;99.90
25983;DHT22;13773;48.868;10.730;2023-08-06T05:58:16;13.70;99.90
25983;DHT22;13773;48.868;10.730;2023-08-06T06:00:41;13.80;99.90
25983;DHT22;13773;48.868;10.730;2023-08-06T06:03:07;13.80;99.90
25983;DHT22;13773;48.868;10.730;2023-08-06T06:05:33;13.90;99.90
25983;DHT22;13773;48.868;10.730;2023-08-06T06:07:59;14.00;99.90
25983;DHT22;13773;48.868;10.730;2023-08-06T06:10:24;14.10;99.90
25983;DHT22;13773;48.868;10.730;2023-08-06T06:12:50;14.20;99.90
25983;DHT22;13773;48.868;10.730;2023-08-06T06:15:16;14.40;99.90
25983;DHT22;13773;48.868;10.730;2023-08-06T06:17:43;14.40;99.90
25983;DHT22;13773;48.868;10.730;2023-08-06T06:20:09;13.60;99.90
25983;DHT22;13773;48.868;10.730;2023-08-06T06:22:34;14.60;99.90
25983;DHT22;13773;48.868;10.730;2023-08-06T06:25:00;14.60;99.90
25983;DHT22;13773;48.868;10.730;2023-08-06T06:27:26;15.00;99.90
25983;DHT22;13773;48.868;10.730;2023-08-06T06:29:52;15.30;99.90
25983;DHT22;13773;48.868;10.730;2023-08-06T06:32:18;15.40;99.90
25983;DHT22;13773;48.868;10.730;2023-08-06T06:34:43;15.40;99.90
25983;DHT22;13773;48.868;10.730;2023-08-06T06:37:09;15.40;99.90
25983;DHT22;13773;48.868;10.730;2023-08-06T06:39:35;15.30;99.90
25983;DHT22;13773;48.868;10.730;2023-08-06T06:42:01;15.40;99.90
25983;DHT22;13773;48.868;10.730;2023-08-06T06:44:26;15.30;99.90
25983;DHT22;13773;48.868;10.730;2023-08-06T06:46:52;15.20;99.90
25983;DHT22;13773;48.868;10.730;2023-08-06T06:49:18;15.50;99.90
25983;DHT22;13773;48.868;10.730;2023-08-06T06:51:43;15.60;99.90
25983;DHT22;13773;48.868;10.730;2023-08-06T06:54:09;15.70;99.90
25983;DHT22;13773;48.868;10.730;2023-08-06T06:56:35;15.80;99.90
25983;DHT22;13773;48.868;10.730;2023-08-06T06:59:01;15.50;99.90
25983;DHT22;13773;48.868;10.730;2023-08-06T07:01:26;15.30;99.90
25983;DHT22;13773;48.868;10.730;2023-08-06T07:03:52;15.20;99.90
25983;DHT22;13773;48.868;10.730;2023-08-06T07:06:18;15.10;99.90
25983;DHT22;13773;48.868;10.730;2023-08-06T07:08:44;15.40;99.90
25983;DHT22;13773;48.868;10.730;2023-08-06T07:11:10;15.80;99.90
25983;DHT22;13773;48.868;10.730;2023-08-06T07:13:36;16.00;99.90
25983;DHT22;13773;48.868;10.730;2023-08-06T07:16:21;15.80;99.90
25983;DHT22;13773;48.868;10.730;2023-08-06T07:18:46;15.60;99.90
25983;DHT22;13773;48.868;10.730;2023-08-06T07:21:12;15.40;99.90
25983;DHT22;13773;48.868;10.730;2023-08-06T07:23:38;15.40;99.90
25983;DHT22;13773;48.868;10.730;2023-08-06T07:26:03;15.50;99.90
25983;DHT22;13773;48.868;10.730;2023-08-06T07:28:29;15.70;99.90
25983;DHT22;13773;48.868;10.730;2023-08-06T07:30:55;15.80;99.90
25983;DHT22;13773;48.868;10.730;2023-08-06T07:33:21;15.80;99.90
25983;DHT22;13773;48.868;10.730;2023-08-06T07:35:46;15.40;99.90
25983;DHT22;13773;48.868;10.730;2023-08-06T07:38:12;15.10;99.90
25983;DHT22;13773;48.868;10.730;2023-08-06T07:40:38;15.00;99.90
25983;DHT22;13773;48.868;10.730;2023-08-06T07:43:04;14.80;99.90
25983;DHT22;13773;48.868;10.730;2023-08-06T07:45:34;14.70;99.90
25983;DHT22;13773;48.868;10.730;2023-08-06T07:48:01;14.70;99.90
25983;DHT22;13773;48.868;10.730;2023-08-06T07:50:27;14.80;99.90
25983;DHT22;13773;48.868;10.730;2023-08-06T07:52:53;15.50;99.90
25983;DHT22;13773;48.868;10.730;2023-08-06T07:55:19;15.90;99.90
25983;DHT22;13773;48.868;10.730;2023-08-06T07:57:44;16.20;99.90
25983;DHT22;13773;48.868;10.730;2023-08-06T08:00:10;16.10;99.90
25983;DHT22;13773;48.868;10.730;2023-08-06T08:02:36;16.10;99.90
25983;DHT22;13773;48.868;10.730;2023-08-06T08:05:02;16.40;99.90
25983;DHT22;13773;48.868;10.730;2023-08-06T08:07:28;16.40;99.90
25983;DHT22;13773;48.868;10.730;2023-08-06T08:09:56;16.40;99.90
25983;DHT22;13773;48.868;10.730;2023-08-06T08:12:22;16.30;99.90
25983;DHT22;13773;48.868;10.730;2023-08-06T08:14:48;16.50;99.90
25983;DHT22;13773;48.868;10.730;2023-08-06T08:17:14;16.20;99.90
25983;DHT22;13773;48.868;10.730;2023-08-06T08:19:40;16.10;99.90
25983;DHT22;13773;48.868;10.730;2023-08-06T08:22:06;16.00;99.90
25983;DHT22;13773;48.868;10.730;2023-08-06T08:24:32;15.60;99.90
25983;DHT22;13773;48.868;10.730;2023-08-06T08:26:58;15.40;99.90
25983;DHT22;13773;48.868;10.730;2023-08-06T08:29:23;15.40;99.90
25983;DHT22;13773;48.868;10.730;2023-08-06T08:31:49;15.40;99.90
25983;DHT22;13773;48.868;10.730;2023-08-06T08:34:19;15.60;99.90
25983;DHT22;13773;48.868;10.730;2023-08-06T08:36:44;15.70;99.90
25983;DHT22;13773;48.868;10.730;2023-08-06T08:39:13;15.60;99.90
25983;DHT22;13773;48.868;10.730;2023-08-06T08:41:39;15.40;99.90
25983;DHT22;13773;48.868;10.730;2023-08-06T08:44:09;15.30;99.90
25983;DHT22;13773;48.868;10.730;2023-08-06T08:46:36;15.10;99.90
25983;DHT22;13773;48.868;10.730;2023-08-06T08:49:04;15.10;99.90
25983;DHT22;13773;48.868;10.730;2023-08-06T08:51:30;15.10;99.90
25983;DHT22;13773;48.868;10.730;2023-08-06T08:53:57;15.30;99.90
25983;DHT22;13773;48.868;10.730;2023-08-06T08:56:23;15.50;99.90
25983;DHT22;13773;48.868;10.730;2023-08-06T08:58:50;15.50;99.90
25983;DHT22;13773;48.868;10.730;2023-08-06T09:01:17;15.70;99.90
25983;DHT22;13773;48.868;10.730;2023-08-06T09:03:46;15.70;99.90
25983;DHT22;13773;48.868;10.730;2023-08-06T09:06:12;15.80;99.90
25983;DHT22;13773;48.868;10.730;2023-08-06T09:09:08;16.00;99.90
25983;DHT22;13773;48.868;10.730;2023-08-06T09:11:44;16.40;99.90
25983;DHT22;13773;48.868;10.730;2023-08-06T09:14:11;16.80;99.90
25983;DHT22;13773;48.868;10.730;2023-08-06T09:16:37;17.00;99.90
25983;DHT22;13773;48.868;10.730;2023-08-06T09:19:10;16.90;99.90
25983;DHT22;13773;48.868;10.730;2023-08-06T09:21:39;16.60;99.90
25983;DHT22;13773;48.868;10.730;2023-08-06T09:24:09;16.40;99.90
25983;DHT22;13773;48.868;10.730;2023-08-06T09:26:40;16.60;99.90
25983;DHT22;13773;48.868;10.730;2023-08-06T09:29:06;16.80;99.90
25983;DHT22;13773;48.868;10.730;2023-08-06T09:31:46;17.10;99.90
25983;DHT22;13773;48.868;10.730;2023-08-06T09:34:21;17.80;99.90
25983;DHT22;13773;48.868;10.730;2023-08-06T09:36:51;17.90;99.90
25983;DHT22;13773;48.868;10.730;2023-08-06T09:39:19;17.50;99.90
25983;DHT22;13773;48.868;10.730;2023-08-06T09:41:45;17.20;99.90
25983;DHT22;13773;48.868;10.730;2023-08-06T09:44:18;17.10;99.90
25983;DHT22;13773;48.868;10.730;2023-08-06T09:46:54;17.10;99.90
25983;DHT22;13773;48.868;10.730;2023-08-06T09:49:26;17.10;99.90
25983;DHT22;13773;48.868;10.730;2023-08-06T09:51:53;17.00;99.90
25983;DHT22;13773;48.868;10.730;2023-08-06T09:54:23;16.60;99.90
25983;DHT22;13773;48.868;10.730;2023-08-06T09:56:49;16.50;99.90
25983;DHT22;13773;48.868;10.730;2023-08-06T09:59:15;16.40;99.90
25983;DHT22;13773;48.868;10.730;2023-08-06T10:01:41;16.60;99.90
25983;DHT22;13773;48.868;10.730;2023-08-06T10:04:07;16.50;99.90
25983;DHT22;13773;48.868;10.730;2023-08-06T10:06:37;16.60;99.90
25983;DHT22;13773;48.868;10.730;2023-08-06T10:09:04;16.80;99.90
25983;DHT22;13773;48.868;10.730;2023-08-06T10:11:30;16.80;99.90
25983;DHT22;13773;48.868;10.730;2023-08-06T10:14:24;17.20;99.90
25983;DHT22;13773;48.868;10.730;2023-08-06T10:16:51;16.60;99.90
25983;DHT22;13773;48.868;10.730;2023-08-06T10:19:18;16.80;99.90
25983;DHT22;13773;48.868;10.730;2023-08-06T10:22:18;17.10;99.90
25983;DHT22;13773;48.868;10.730;2023-08-06T10:24:54;17.80;99.90
25983;DHT22;13773;48.868;10.730;2023-08-06T10:27:29;17.80;99.90
25983;DHT22;13773;48.868;10.730;2023-08-06T10:32:51;18.10;99.90
25983;DHT22;13773;48.868;10.730;2023-08-06T10:35:44;18.20;99.90
25983;DHT22;13773;48.868;10.730;2023-08-06T10:38:11;18.10;99.90
25983;DHT22;13773;48.868;10.730;2023-08-06T10:43:33;16.30;99.90
25983;DHT22;13773;48.868;10.730;2023-08-06T10:46:02;15.80;99.90
25983;DHT22;13773;48.868;10.730;2023-08-06T10:48:40;15.40;99.90
25983;DHT22;13773;48.868;10.730;2023-08-06T10:51:10;15.30;99.90
25983;DHT22;13773;48.868;10.730;2023-08-06T10:53:36;15.50;99.90
25983;DHT22;13773;48.868;10.730;2023-08-06T10:56:45;15.80;99.90
25983;DHT22;13773;48.868;10.730;2023-08-06T10:59:03;16.20;99.90
25983;DHT22;13773;48.868;10.730;2023-08-06T11:01:29;16.40;99.90
25983;DHT22;13773;48.868;10.730;2023-08-06T11:03:55;16.40;99.90
25983;DHT22;13773;48.868;10.730;2023-08-06T11:06:22;16.40;99.90
25983;DHT22;13773;48.868;10.730;2023-08-06T11:08:50;16.20;99.90
25983;DHT22;13773;48.868;10.730;2023-08-06T11:11:17;16.20;99.90
25983;DHT22;13773;48.868;10.730;2023-08-06T11:13:46;16.20;99.90
25983;DHT22;13773;48.868;10.730;2023-08-06T11:16:17;16.20;99.90
25983;DHT22;13773;48.868;10.730;2023-08-06T11:18:43;16.10;99.90
25983;DHT22;13773;48.868;10.730;2023-08-06T11:21:10;16.20;99.90
25983;DHT22;13773;48.868;10.730;2023-08-06T11:23:37;16.30;99.90
25983;DHT22;13773;48.868;10.730;2023-08-06T11:26:03;16.20;99.90
25983;DHT22;13773;48.868;10.730;2023-08-06T11:28:29;16.20;99.90
25983;DHT22;13773;48.868;10.730;2023-08-06T11:30:55;16.00;99.90
25983;DHT22;13773;48.868;10.730;2023-08-06T11:33:25;16.00;99.90
25983;DHT22;13773;48.868;10.730;2023-08-06T11:35:51;16.00;99.90
25983;DHT22;13773;48.868;10.730;2023-08-06T11:38:17;16.00;99.90
25983;DHT22;13773;48.868;10.730;2023-08-06T11:40:47;15.80;99.90
25983;DHT22;13773;48.868;10.730;2023-08-06T11:43:13;15.30;99.90
25983;DHT22;13773;48.868;10.730;2023-08-06T11:45:40;14.90;99.90
25983;DHT22;13773;48.868;10.730;2023-08-06T11:48:06;14.80;99.90
25983;DHT22;13773;48.868;10.730;2023-08-06T11:50:37;15.00;99.90
25983;DHT22;13773;48.868;10.730;2023-08-06T11:53:06;15.10;99.90
25983;DHT22;13773;48.868;10.730;2023-08-06T11:55:32;15.30;99.90
25983;DHT22;13773;48.868;10.730;2023-08-06T11:57:59;15.30;99.90
25983;DHT22;13773;48.868;10.730;2023-08-06T12:00:29;15.30;99.90
25983;DHT22;13773;48.868;10.730;2023-08-06T12:02:54;14.80;99.90
25983;DHT22;13773;48.868;10.730;2023-08-06T12:05:30;14.40;99.90
25983;DHT22;13773;48.868;10.730;2023-08-06T12:08:01;14.10;99.90
25983;DHT22;13773;48.868;10.730;2023-08-06T12:10:28;14.20;99.90
25983;DHT22;13773;48.868;10.730;2023-08-06T12:12:55;14.40;99.90
25983;DHT22;13773;48.868;10.730;2023-08-06T12:15:21;14.60;99.90
25983;DHT22;13773;48.868;10.730;2023-08-06T12:17:47;14.70;99.90
25983;DHT22;13773;48.868;10.730;2023-08-06T12:20:13;14.90;99.90
25983;DHT22;13773;48.868;10.730;2023-08-06T12:22:39;15.20;99.90
25983;DHT22;13773;48.868;10.730;2023-08-06T12:25:12;15.20;99.90
25983;DHT22;13773;48.868;10.730;2023-08-06T12:27:39;15.30;99.90
25983;DHT22;13773;48.868;10.730;2023-08-06T12:30:06;15.20;99.90
25983;DHT22;13773;48.868;10.730;2023-08-06T12:32:33;15.10;99.90
25983;DHT22;13773;48.868;10.730;2023-08-06T12:35:00;15.30;99.90
25983;DHT22;13773;48.868;10.730;2023-08-06T12:37:26;15.40;99.90
25983;DHT22;13773;48.868;10.730;2023-08-06T12:39:52;15.20;99.90
25983;DHT22;13773;48.868;10.730;2023-08-06T12:42:18;14.70;99.90
25983;DHT22;13773;48.868;10.730;2023-08-06T12:44:44;14.60;99.90
25983;DHT22;13773;48.868;10.730;2023-08-06T12:47:10;14.70;99.90
25983;DHT22;13773;48.868;10.730;2023-08-06T12:49:36;14.70;99.90
25983;DHT22;13773;48.868;10.730;2023-08-06T12:52:02;14.70;99.90
25983;DHT22;13773;48.868;10.730;2023-08-06T12:54:30;14.60;99.90
25983;DHT22;13773;48.868;10.730;2023-08-06T12:57:02;14.60;99.90
25983;DHT22;13773;48.868;10.730;2023-08-06T12:59:28;14.60;99.90
25983;DHT22;13773;48.868;10.730;2023-08-06T13:01:54;14.70;99.90
25983;DHT22;13773;48.868;10.730;2023-08-06T13:04:19;14.60;99.90
25983;DHT22;13773;48.868;10.730;2023-08-06T13:06:46;14.40;99.90
25983;DHT22;13773;48.868;10.730;2023-08-06T13:09:12;14.30;99.90
25983;DHT22;13773;48.868;10.730;2023-08-06T13:11:39;14.30;99.90
25983;DHT22;13773;48.868;10.730;2023-08-06T13:14:10;14.30;99.90
25983;DHT22;13773;48.868;10.730;2023-08-06T13:16:37;14.20;99.90
25983;DHT22;13773;48.868;10.730;2023-08-06T13:19:04;14.10;99.90
25983;DHT22;13773;48.868;10.730;2023-08-06T13:21:35;14.10;99.90
25983;DHT22;13773;48.868;10.730;2023-08-06T13:24:01;14.10;99.90
25983;DHT22;13773;48.868;10.730;2023-08-06T13:26:29;14.10;99.90
25983;DHT22;13773;48.868;10.730;2023-08-06T13:28:59;14.20;99.90
25983;DHT22;13773;48.868;10.730;2023-08-06T13:31:26;14.20;99.90
25983;DHT22;13773;48.868;10.730;2023-08-06T13:33:52;14.10;99.90
25983;DHT22;13773;48.868;10.730;2023-08-06T13:36:19;14.10;99.90
25983;DHT22;13773;48.868;10.730;2023-08-06T13:38:45;14.00;99.90
25983;DHT22;13773;48.868;10.730;2023-08-06T13:41:11;14.10;99.90
25983;DHT22;13773;48.868;10.730;2023-08-06T13:43:37;14.00;99.90
25983;DHT22;13773;48.868;10.730;2023-08-06T13:46:02;13.90;99.90
25983;DHT22;13773;48.868;10.730;2023-08-06T13:48:28;13.80;99.90
25983;DHT22;13773;48.868;10.730;2023-08-06T13:50:54;13.70;99.90
25983;DHT22;13773;48.868;10.730;2023-08-06T13:53:20;13.70;99.90
25983;DHT22;13773;48.868;10.730;2023-08-06T13:55:45;13.60;99.90
25983;DHT22;13773;48.868;10.730;2023-08-06T13:58:11;13.60;99.90
25983;DHT22;13773;48.868;10.730;2023-08-06T14:00:37;13.50;99.90
25983;DHT22;13773;48.868;10.730;2023-08-06T14:03:03;13.50;99.90
25983;DHT22;13773;48.868;10.730;2023-08-06T14:05:28;13.50;99.90
25983;DHT22;13773;48.868;10.730;2023-08-06T14:07:54;13.40;99.90
25983;DHT22;13773;48.868;10.730;2023-08-06T14:10:20;13.40;99.90
25983;DHT22;13773;48.868;10.730;2023-08-06T14:12:45;13.40;99.90
25983;DHT22;13773;48.868;10.730;2023-08-06T14:15:11;13.40;99.90
25983;DHT22;13773;48.868;10.730;2023-08-06T14:17:37;13.20;99.90
25983;DHT22;13773;48.868;10.730;2023-08-06T14:20:04;13.10;99.90
25983;DHT22;13773;48.868;10.730;2023-08-06T14:22:30;13.10;99.90
25983;DHT22;13773;48.868;10.730;2023-08-06T14:24:58;13.00;99.90
25983;DHT22;13773;48.868;10.730;2023-08-06T14:27:25;13.00;99.90
25983;DHT22;13773;48.868;10.730;2023-08-06T14:29:51;13.10;99.90
25983;DHT22;13773;48.868;10.730;2023-08-06T14:32:17;13.10;99.90
25983;DHT22;13773;48.868;10.730;2023-08-06T14:34:45;13.10;99.90
25983;DHT22;13773;48.868;10.730;2023-08-06T14:37:11;13.20;99.90
25983;DHT22;13773;48.868;10.730;2023-08-06T14:39:37;13.20;99.90
25983;DHT22;13773;48.868;10.730;2023-08-06T14:42:04;13.20;99.90
25983;DHT22;13773;48.868;10.730;2023-08-06T14:44:30;13.20;99.90
25983;DHT22;13773;48.868;10.730;2023-08-06T14:46:56;13.20;99.90
25983;DHT22;13773;48.868;10.730;2023-08-06T14:49:23;13.30;99.90
25983;DHT22;13773;48.868;10.730;2023-08-06T14:51:48;13.60;99.90
25983;DHT22;13773;48.868;10.730;2023-08-06T14:54:14;13.50;99.90
25983;DHT22;13773;48.868;10.730;2023-08-06T14:56:40;13.40;99.90
25983;DHT22;13773;48.868;10.730;2023-08-06T14:59:06;13.60;99.90
25983;DHT22;13773;48.868;10.730;2023-08-06T15:01:31;13.60;99.90
25983;DHT22;13773;48.868;10.730;2023-08-06T15:03:58;13.70;99.90
25983;DHT22;13773;48.868;10.730;2023-08-06T15:06:24;13.60;99.90
25983;DHT22;13773;48.868;10.730;2023-08-06T15:08:49;13.70;99.90
25983;DHT22;13773;48.868;10.730;2023-08-06T15:11:15;13.70;99.90
25983;DHT22;13773;48.868;10.730;2023-08-06T15:13:41;13.60;99.90
25983;DHT22;13773;48.868;10.730;2023-08-06T15:16:07;13.60;99.90
25983;DHT22;13773;48.868;10.730;2023-08-06T15:18:32;13.60;99.90
25983;DHT22;13773;48.868;10.730;2023-08-06T15:20:58;13.60;99.90
25983;DHT22;13773;48.868;10.730;2023-08-06T15:23:24;13.60;99.90
25983;DHT22;13773;48.868;10.730;2023-08-06T15:25:50;13.70;99.90